Latest Weather Observations for Applethorpe

IDQ60801

Issued at 12:52 pm EST Monday 19 November 2018 (issued every 10 minutes, with the page automatically refreshed every 10 minutes)

About weather observations | Map of weather stations | Latest weather observations for QLD | Other Formats
Station Details ID: 041175 Name: APPLETHORPE Lat: -28.62 Lon: 151.95 Height: 871.6 m
Data from the previous 72 hours. | See also: Recent months at Applethorpe
Date/Time
EST
Temp
°C
App
Temp
°C
Dew
Point
°C
Rel
Hum
%
Delta-T
°C
Wind Press
QNH
hPa
Press
MSL
hPa
Rain since
9am
mm
Dir  Spd
km/h
Gust
km/h
Spd
kts
Gust
kts
19/12:30pm 21.5 20.8 12.1 55 5.5 ENE 7 15 4 8 1020.4 1016.8 0.0
19/12:00pm 18.8 17.5 11.1 61 4.4 ENE 9 19 5 10 1020.9 1017.3 0.0
19/11:30am 19.6 18.5 12.1 62 4.4 ESE 9 17 5 9 1021.3 1017.7 0.0
19/11:00am 17.9 16.9 11.0 64 3.9 ENE 7 17 4 9 1021.7 1018.2 0.0
19/10:30am 18.8 18.3 12.5 67 3.7 ESE 7 17 4 9 1022.0 1018.5 0.0
19/10:00am 18.3 17.0 12.5 69 3.4 ENE 11 22 6 12 1022.6 1019.0 0.0
19/09:30am 16.0 15.1 12.6 80 2.0 E 9 20 5 11 1022.8 1019.3 0.0
19/09:00am 15.0 13.9 12.1 83 1.6 ESE 9 17 5 9 1022.8 1019.3 0.0
19/08:30am 15.2 14.2 12.3 83 1.7 E 9 19 5 10 1022.8 1019.3 0.0
19/08:00am 14.4 12.8 11.7 84 1.5 E 11 22 6 12 1022.7 1019.2 0.0
19/07:30am 13.8 12.5 12.5 92 0.7 ENE 11 20 6 11 1022.5 1018.9 0.0
19/07:00am 13.3 12.6 13.1 99 0.1 E 9 19 5 10 1022.2 1018.6 0.0
19/06:30am 12.9 11.3 12.7 99 0.1 E 13 24 7 13 1021.8 1018.3 0.0
19/06:00am 12.4 11.4 12.2 99 0.1 E 9 20 5 11 1021.7 1018.2 0.0
19/05:30am 12.2 11.6 12.2 100 0.0 E 7 13 4 7 1021.5 1017.9 0.0
19/05:00am 11.9 11.2 11.9 100 0.0 E 7 15 4 8 1021.2 1017.6 0.0
19/04:30am 11.7 10.5 11.7 100 0.0 E 9 19 5 10 1021.0 1017.4 0.0
19/04:00am 12.2 11.2 12.2 100 0.0 E 9 20 5 11 1020.6 1017.1 0.0
19/03:30am 12.2 10.8 12.2 100 0.0 E 11 24 6 13 1020.6 1017.1 0.0
19/03:00am 12.4 11.1 12.4 100 0.0 E 11 24 6 13 1020.6 1017.1 0.0
19/02:30am 12.3 11.3 12.3 100 0.0 E 9 19 5 10 1020.5 1016.9 0.0
19/02:00am 12.3 10.9 12.3 100 0.0 E 11 26 6 14 1020.3 1016.7 0.0
19/01:30am 12.4 11.1 12.4 100 0.0 E 11 22 6 12 1020.6 1017.1 0.0
19/01:00am 12.2 11.6 12.2 100 0.0 E 7 17 4 9 1021.3 1017.7 0.0
19/12:30am 12.1 10.3 12.1 100 0.0 E 13 24 7 13 1021.6 1018.0 0.0
19/12:00am 12.2 11.2 12.2 100 0.0 E 9 17 5 9 1021.9 1018.4 0.0
 
Date/Time
EST
Temp
°C
App
Temp
°C
Dew
Point
°C
Rel
Hum
%
Delta-T
°C
Wind Press
QNH
hPa
Press
MSL
hPa
Rain since
9am
mm
Dir  Spd
km/h
Gust
km/h
Spd
kts
Gust
kts
18/11:30pm 12.8 11.2 12.8 100 0.0 E 13 28 7 15 1021.9 1018.4 0.0
18/11:00pm 13.2 11.7 13.2 100 0.0 E 13 26 7 14 1022.0 1018.5 0.0
18/10:30pm 13.3 11.8 13.1 99 0.1 E 13 24 7 13 1021.6 1018.0 0.0
18/10:00pm 13.7 12.7 13.4 98 0.2 E 11 22 6 12 1021.8 1018.3 0.0
18/09:30pm 13.6 12.7 12.5 93 0.6 E 9 24 5 13 1021.9 1018.4 0.0
18/09:00pm 13.9 12.7 12.8 93 0.6 ESE 11 26 6 14 1021.8 1018.3 0.0
18/08:30pm 14.3 13.3 13.3 94 0.6 E 11 24 6 13 1021.4 1017.8 0.0
18/08:00pm 14.5 13.3 12.9 90 0.9 E 11 26 6 14 1021.3 1017.7 0.0
18/07:30pm 14.7 14.0 13.1 90 0.9 ENE 9 19 5 10 1021.5 1017.9 0.0
18/07:00pm 14.8 13.7 13.2 90 0.9 E 11 24 6 13 1020.9 1017.3 0.0
18/06:30pm 14.9 13.5 13.3 90 0.9 E 13 32 7 17 1020.3 1016.7 0.0
18/06:00pm 15.3 14.3 13.5 89 1.0 E 11 22 6 12 1020.4 1016.8 0.0
18/05:30pm 15.7 14.7 13.4 86 1.3 ESE 11 20 6 11 1020.4 1016.8 0.0
18/05:00pm 16.8 15.3 13.1 79 2.2 ESE 13 22 7 12 1019.4 1015.8 0.0
18/04:30pm 17.8 15.6 12.0 69 3.3 ESE 15 26 8 14 1019.3 1015.7 0.0
18/04:00pm 19.6 17.7 13.1 66 3.8 E 15 28 8 15 1019.3 1015.7 0.0
18/03:30pm 18.9 16.6 11.9 64 4.0 ESE 15 28 8 15 1019.7 1016.1 0.0
18/03:00pm 19.5 17.6 11.8 61 4.4 E 13 24 7 13 1020.0 1016.4 0.0
18/02:30pm 19.3 17.3 12.8 66 3.8 E 15 28 8 15 1020.3 1016.7 0.0
18/02:00pm 19.1 17.5 11.7 62 4.2 ESE 11 24 6 13 1020.7 1017.2 0.0
18/01:30pm 20.6 18.9 12.6 60 4.7 ESE 13 24 7 13 1020.6 1017.1 0.0
18/01:00pm 20.5 18.8 12.5 60 4.7 ESE 13 28 7 15 1020.9 1017.3 0.0
18/12:30pm 19.9 17.9 12.7 63 4.2 ESE 15 28 8 15 1021.0 1017.4 0.0
18/12:00pm 20.4 18.4 12.6 61 4.6 E 15 28 8 15 1021.0 1017.4 0.0
18/11:30am 20.4 18.7 12.4 60 4.7 ESE 13 28 7 15 1021.2 1017.6 0.0
18/11:00am 20.4 18.5 13.1 63 4.3 E 15 30 8 16 1021.4 1017.8 0.0
18/10:30am 19.3 16.7 12.1 63 4.2 ESE 17 28 9 15 1021.5 1017.9 0.0
18/10:00am 18.9 16.4 12.2 65 3.9 ESE 17 30 9 16 1021.7 1018.2 0.0
18/09:30am 18.9 17.9 13.3 70 3.3 ESE 11 30 6 16 1021.6 1018.0 0.0
18/09:00am 17.4 14.6 12.7 74 2.7 ESE 19 32 10 17 1021.6 1018.0 1.4
18/08:30am 17.0 15.1 13.1 78 2.3 ESE 15 32 8 17 1021.7 1018.2 1.4
18/08:00am 17.3 16.5 14.0 81 2.0 E 11 26 6 14 1021.6 1018.0 1.4
18/07:30am 16.5 15.9 13.6 83 1.7 E 9 20 5 11 1021.5 1017.9 1.4
18/07:00am 15.2 13.3 13.1 87 1.2 ESE 15 28 8 15 1021.3 1017.7 1.4
18/06:30am 14.8 13.9 13.7 93 0.6 E 11 22 6 12 1020.9 1017.3 1.4
18/06:00am 14.2 13.0 13.9 98 0.2 ESE 13 28 7 15 1020.3 1016.7 1.4
18/05:30am 13.9 13.0 13.7 99 0.1 ESE 11 24 6 13 1020.0 1016.4 1.4
18/05:00am 13.6 12.2 13.4 99 0.1 ESE 13 30 7 16 1019.7 1016.1 1.4
18/04:30am 14.1 12.9 13.9 99 0.1 ESE 13 24 7 13 1019.2 1015.6 1.4
18/04:00am 14.4 14.0 14.2 99 0.1 ESE 9 20 5 11 1018.9 1015.3 1.4
18/03:30am 14.2 13.4 14.0 99 0.1 ESE 11 26 6 14 1018.7 1015.1 1.4
18/03:00am 14.3 13.9 14.1 99 0.1 ESE 9 20 5 11 1018.7 1015.1 1.4
18/02:30am 14.3 13.1 14.1 99 0.1 ESE 13 26 7 14 1018.8 1015.2 1.4
18/02:00am 14.1 12.9 13.9 99 0.1 ESE 13 24 7 13 1018.9 1015.3 1.4
18/01:30am 13.9 13.4 13.7 99 0.1 ESE 9 20 5 11 1019.1 1015.5 1.4
18/01:00am 14.1 13.6 13.9 99 0.1 ESE 9 20 5 11 1019.3 1015.7 1.4
18/12:30am 14.8 13.8 14.6 99 0.1 ESE 13 30 7 16 1019.5 1015.9 1.4
18/12:00am 14.8 13.4 14.6 99 0.1 ESE 15 32 8 17 1019.9 1016.3 1.4
 
Date/Time
EST
Temp
°C
App
Temp
°C
Dew
Point
°C
Rel
Hum
%
Delta-T
°C
Wind Press
QNH
hPa
Press
MSL
hPa
Rain since
9am
mm
Dir  Spd
km/h
Gust
km/h
Spd
kts
Gust
kts
17/11:30pm 14.9 13.2 14.7 99 0.1 ESE 17 35 9 19 1019.9 1016.3 1.4
17/11:00pm 15.2 14.7 15.0 99 0.1 E 11 24 6 13 1020.1 1016.5 1.4
17/10:30pm 15.1 14.2 14.9 99 0.1 ESE 13 24 7 13 1019.8 1016.2 1.4
17/10:00pm 15.3 13.7 15.1 99 0.1 ESE 17 33 9 18 1020.0 1016.4 1.4
17/09:30pm 15.1 14.6 14.9 99 0.1 ESE 11 24 6 13 1019.8 1016.2 1.4
17/09:00pm 14.9 13.9 14.7 99 0.1 ESE 13 30 7 16 1019.9 1016.3 1.4
17/08:30pm 15.2 14.0 15.0 99 0.1 ESE 15 28 8 15 1019.4 1015.8 1.4
17/08:00pm 15.4 14.3 15.2 99 0.1 ESE 15 35 8 19 1019.2 1015.6 1.4
17/07:30pm 15.4 14.6 15.2 99 0.1 ESE 13 24 7 13 1018.8 1015.2 1.4
17/07:00pm 15.4 14.6 15.2 99 0.1 E 13 28 7 15 1018.2 1014.6 1.4
17/06:30pm 15.5 15.5 15.3 99 0.1 ESE 9 19 5 10 1017.7 1014.1 1.4
17/06:00pm 15.8 15.2 14.7 93 0.7 ESE 11 39 6 21 1017.0 1013.4 1.2
17/05:30pm 19.2 19.0 16.6 85 1.6 E 13 32 7 17 1016.1 1012.4 0.6
17/05:00pm 21.4 21.7 15.9 71 3.4 ENE 9 20 5 11 1015.6 1012.0 0.0
17/04:30pm 22.0 22.0 14.1 61 4.8 ENE 7 13 4 7 1015.5 1011.9 0.0
17/04:00pm 25.2 24.6 10.3 39 8.6 SW 4 7 2 4 1014.9 1011.2 0.0
17/03:30pm 25.9 24.4 10.5 38 9.0 WSW 9 15 5 8 1014.5 1010.9 0.0
17/03:00pm 26.7 24.8 9.1 33 10.0 SW 9 17 5 9 1014.4 1010.7 0.0
17/02:30pm 27.1 25.4 9.9 34 10.0 W 9 19 5 10 1014.8 1011.1 0.0
17/02:00pm 27.1 26.2 10.8 36 9.6 W 6 20 3 11 1015.4 1011.7 0.0
17/01:30pm 26.9 26.0 11.4 38 9.2 WNW 7 20 4 11 1016.2 1012.5 0.0
17/01:00pm 26.9 25.5 12.2 40 8.8 WSW 11 20 6 11 1016.9 1013.3 0.0
17/12:30pm 25.3 25.4 13.8 49 7.0 NNW 6 17 3 9 1017.3 1013.6 0.0
17/12:00pm 24.8 24.7 14.0 51 6.6 NNE 7 17 4 9 1017.6 1014.0 0.0
17/11:30am 23.8 23.6 13.6 52 6.2 ENE 7 15 4 8 1017.8 1014.2 0.0
17/11:00am 23.4 23.8 14.7 58 5.4 N 6 9 3 5 1018.3 1014.7 0.0
17/10:30am 22.9 22.9 14.2 58 5.3 N 7 13 4 7 1018.6 1015.0 0.0
17/10:00am 22.2 22.4 14.6 62 4.6 N 7 13 4 7 1018.9 1015.3 0.0
17/09:30am 20.9 21.0 14.5 67 3.9 NNE 7 15 4 8 1019.0 1015.4 0.0
17/09:00am 20.6 21.3 15.6 73 3.1 NE 6 13 3 7 1019.1 1015.5 0.2
17/08:30am 20.4 21.2 15.8 75 2.9 NE 6 9 3 5 1019.3 1015.7 0.2
17/08:00am 19.4 20.1 16.2 82 2.0 ENE 7 17 4 9 1019.2 1015.6 0.2
17/07:30am 18.7 19.1 16.3 86 1.5 ENE 9 17 5 9 1019.0 1015.4 0.2
17/07:00am 17.5 18.6 17.2 98 0.2 ENE 7 17 4 9 1018.9 1015.3 0.2
17/06:30am 16.8 17.7 16.6 99 0.1 ENE 7 13 4 7 1018.8 1015.2 0.2
17/06:00am 16.3 17.1 16.3 100 0.0 ENE 7 17 4 9 1018.3 1014.7 0.2
17/05:30am 16.3 17.3 16.3 100 0.0 ENE 6 13 3 7 1018.0 1014.4 0.2
17/05:00am 16.2 17.1 16.2 100 0.0 ENE 6 11 3 6 1017.7 1014.1 0.2
17/04:30am 16.1 17.0 16.1 100 0.0 ENE 6 11 3 6 1017.4 1013.7 0.2
17/04:00am 16.2 17.1 16.2 100 0.0 ENE 6 13 3 7 1017.2 1013.5 0.2
17/03:30am 16.1 16.8 16.1 100 0.0 ENE 7 15 4 8 1017.0 1013.4 0.2
17/03:00am 16.2 17.1 16.2 100 0.0 ENE 6 11 3 6 1017.2 1013.5 0.2
17/02:30am 16.1 16.8 16.1 100 0.0 ENE 7 13 4 7 1017.3 1013.6 0.2
17/02:00am 16.2 16.9 16.2 100 0.0 ENE 7 17 4 9 1017.6 1014.0 0.2
17/01:30am 16.3 17.2 16.1 99 0.1 ENE 6 13 3 7 1017.9 1014.3 0.2
17/01:00am 16.4 17.3 16.2 99 0.1 E 6 13 3 7 1018.2 1014.6 0.2
17/12:30am 16.5 17.5 16.3 99 0.1 E 6 9 3 5 1018.7 1015.1 0.2
17/12:00am 16.6 17.4 16.3 98 0.2 E 7 15 4 8 1018.9 1015.3 0.2
 
Date/Time
EST
Temp
°C
App
Temp
°C
Dew
Point
°C
Rel
Hum
%
Delta-T
°C
Wind Press
QNH
hPa
Press
MSL
hPa
Rain since
9am
mm
Dir  Spd
km/h
Gust
km/h
Spd
kts
Gust
kts
16/11:30pm 16.8 17.7 16.6 99 0.1 E 7 17 4 9 1019.3 1015.7 0.2
16/11:00pm 16.9 17.5 16.7 99 0.1 E 9 19 5 10 1019.4 1015.8 0.2
16/10:30pm 17.0 17.6 16.8 99 0.1 E 9 20 5 11 1019.4 1015.8 0.2
16/10:00pm 17.2 17.9 17.0 99 0.1 ESE 9 19 5 10 1019.5 1015.9 0.2
16/09:30pm 17.3 18.0 17.1 99 0.1 ESE 9 20 5 11 1019.5 1015.9 0.2
16/09:00pm 17.6 18.3 17.0 96 0.4 ESE 9 20 5 11 1019.2 1015.6 0.2
16/08:30pm 18.2 19.5 17.0 93 0.8 E 6 13 3 7 1019.2 1015.6 0.2
16/08:00pm 18.4 19.6 16.9 91 0.9 ENE 6 13 3 7 1018.7 1015.1 0.2
16/07:30pm 18.7 19.6 16.5 87 1.4 E 7 20 4 11 1018.1 1014.5 0.2
16/07:00pm 19.7 20.8 16.5 82 2.0 E 6 19 3 10 1018.0 1014.4 0.2
16/06:30pm 20.7 21.7 16.3 76 2.8 E 6 15 3 8 1017.6 1014.0 0.2
16/06:00pm 22.2 23.1 16.2 69 3.8 E 6 15 3 8 1017.0 1013.4 0.2
16/05:30pm 23.2 23.4 15.8 63 4.6 E 9 19 5 10 1016.6 1013.0 0.2
16/05:00pm 26.6 26.1 15.0 49 7.3 E 11 22 6 12 1016.0 1012.3 0.2
16/04:30pm 27.8 27.0 9.6 32 10.5 W 4 6 2 3 1015.8 1012.2 0.2
16/04:00pm 26.7 24.2 8.2 31 10.4 WNW 11 20 6 11 1015.8 1012.2 0.2
16/03:30pm 27.5 24.8 7.4 28 11.2 SW 11 22 6 12 1015.7 1012.1 0.2
16/03:00pm 27.6 26.3 9.9 33 10.3 W 7 15 4 8 1016.1 1012.4 0.2
16/02:30pm 27.4 25.4 10.2 34 10.0 WSW 11 20 6 11 1016.4 1012.7 0.2
16/02:00pm 27.5 24.8 8.9 31 10.6 W 13 20 7 11 1016.6 1013.0 0.2
16/01:30pm 27.4 25.3 9.7 33 10.2 WSW 11 26 6 14 1017.2 1013.5 0.2
16/01:00pm 26.4 24.5 10.5 37 9.3 W 11 20 6 11 1017.7 1014.1 0.2

Other Formats:

Comma delimited format used in spreadsheet applications
http://www.bom.gov.au/fwo/IDQ60801/IDQ60801.94553.axf

JavaScript Object Notation format (JSON) in row-major order
http://www.bom.gov.au/fwo/IDQ60801/IDQ60801.94553.json